METAR Data
IDs: Format: Raw Decoded Include TAF

Data at: 0240 UTC 20 Jan 2022

KSTK 200235Z AUTO 07004KT 5SM -SN SCT013 SCT018 BKN028 M08/M11 A3042 RMK AO2
KSTK 200215Z AUTO 06004KT 3SM -SN SCT013 BKN017 OVC028 M08/M10 A3042 RMK AO2
KSTK 200155Z AUTO 07004KT 4SM -SN OVC019 M08/M10 A3040 RMK AO2
KSTK 200135Z AUTO 07003KT 10SM -SN BKN024 BKN040 OVC110 M08/M11 A3040 RMK AO2
KSTK 200115Z AUTO 07003KT 7SM -SN SCT024 SCT028 OVC110 M07/M11 A3039 RMK AO2
KSTK 200055Z AUTO 00000KT 5SM -SN OVC030 M07/M11 A3039 RMK AO2
KSTK 200035Z AUTO 09003KT 7SM -SN OVC028 M07/M11 A3038 RMK AO2
KSTK 200015Z AUTO 08005KT 10SM -SN SCT019 OVC026 M07/M11 A3038 RMK AO2
KSTK 192355Z AUTO 06006KT 10SM OVC024 M07/M11 A3037 RMK AO2
KSTK 192335Z AUTO 08003KT 10SM SCT020 OVC026 M07/M11 A3037 RMK AO2
KSTK 192315Z AUTO 06003KT 10SM OVC028 M07/M12 A3036 RMK AO2
KSTK 192255Z AUTO 04003KT 10SM SCT019 OVC028 M07/M11 A3036 RMK AO2
KSTK 192235Z AUTO 03003KT 10SM BKN019 OVC028 M07/M11 A3035 RMK AO2
KSTK 192215Z AUTO 01004KT 10SM -SN BKN019 OVC026 M07/M11 A3035 RMK AO2
KSTK 192155Z AUTO 01005KT 10SM -SN BKN024 BKN032 OVC044 M06/M11 A3035 RMK AO2
KSTK 192135Z AUTO 36004KT 7SM -SN SCT017 BKN032 OVC055 M06/M11 A3034 RMK AO2
KSTK 192115Z AUTO 06004KT 4SM -SN BKN017 OVC025 M07/M11 A3034 RMK AO2
KSTK 192055Z AUTO 04003KT 3SM -SN SCT014 OVC025 M07/M10 A3034 RMK AO2
KSTK 192035Z AUTO 04004KT 1 1/2SM -SN OVC012 M07/M10 A3034 RMK AO2
KSTK 192015Z AUTO 06005KT 1 1/2SM -SN OVC014 M07/M11 A3034 RMK AO2
KSTK 191955Z AUTO 04003KT 2SM -SN OVC014 M07/M11 A3035 RMK AO2
KSTK 191935Z AUTO 02005KT 2 1/2SM -SN SCT016 BKN022 OVC042 M07/M11 A3035 RMK AO2
KSTK 191915Z AUTO 05005KT 5SM -SN SCT023 OVC040 M07/M11 A3035 RMK AO2
KSTK 191855Z AUTO 02005KT 10SM -SN BKN023 OVC038 M07/M12 A3035 RMK AO2
KSTK 191835Z AUTO 03007KT 10SM BKN021 OVC038 M07/M12 A3035 RMK AO2
KSTK 191815Z AUTO 36005KT 10SM SCT019 SCT024 OVC038 M07/M12 A3035 RMK AO2
KSTK 191755Z AUTO 02005KT 10SM SCT019 OVC038 M07/M11 A3035 RMK AO2
KSTK 191735Z AUTO 02007KT 10SM OVC034 M07/M12 A3035 RMK AO2
KSTK 191715Z AUTO 03008KT 10SM SCT017 SCT025 OVC032 M07/M11 A3035 RMK AO2
KSTK 191655Z AUTO 01007KT 10SM -SN BKN022 OVC028 M07/M11 A3035 RMK AO2
KSTK 191635Z AUTO 02008KT 10SM SCT016 BKN020 OVC028 M07/M11 A3033 RMK AO2
KSTK 191615Z AUTO 01009KT 10SM -SN BKN015 OVC020 M08/M11 A3032 RMK AO2
KSTK 191555Z AUTO 03007KT 10SM OVC015 M08/M11 A3031 RMK AO2
KSTK 191535Z AUTO 02008KT 10SM OVC015 M07/M11 A3030 RMK AO2
KSTK 191515Z AUTO 02010G15KT 10SM OVC017 M07/M11 A3029 RMK AO2
KSTK 191455Z AUTO 02008KT 10SM OVC017 M07/M10 A3027 RMK AO2
KSTK 191435Z AUTO 02008KT 10SM OVC017 M07/M10 A3026 RMK AO2
KSTK 191415Z AUTO 01011KT 10SM OVC017 M07/M11 A3025 RMK AO2
KSTK 191355Z AUTO 04006KT 10SM OVC017 M07/M11 A3024 RMK AO2
KSTK 191335Z AUTO 02008KT 10SM OVC017 M06/M10 A3022 RMK AO2
KSTK 191315Z AUTO 02008KT 10SM OVC015 M06/M10 A3022 RMK AO2
KSTK 191255Z AUTO 04007KT 10SM OVC015 M06/M09 A3020 RMK AO2
KSTK 191235Z AUTO 04006KT 10SM OVC015 M06/M09 A3020 RMK AO2
KSTK 191215Z AUTO 03005KT 10SM OVC015 M06/M08 A3018 RMK AO2
KSTK 191155Z AUTO 04006KT 10SM OVC015 M06/M08 A3018 RMK AO2
KSTK 191135Z AUTO 04006KT 10SM OVC017 M05/M08 A3017 RMK AO2
KSTK 191115Z AUTO 01007KT 10SM OVC017 M05/M08 A3017 RMK AO2
KSTK 191055Z AUTO 02008KT 10SM OVC019 M05/M08 A3017 RMK AO2
KSTK 191035Z AUTO 02007KT 10SM OVC017 M05/M07 A3016 RMK AO2
KSTK 191015Z AUTO 04009KT 10SM OVC015 M04/M07 A3016 RMK AO2
KSTK 190955Z AUTO 02010G16KT 10SM OVC015 M04/M07 A3014 RMK AO2
KSTK 190935Z AUTO 02007KT 10SM OVC015 M03/M07 A3014 RMK AO2
KSTK 190915Z AUTO 03010KT 10SM OVC015 M03/M06 A3013 RMK AO2
KSTK 190855Z AUTO 04009KT 10SM OVC015 M03/M06 A3011 RMK AO2
KSTK 190835Z AUTO 04009KT 10SM OVC015 M03/M06 A3011 RMK AO2
KSTK 190815Z AUTO 04009KT 10SM OVC015 M02/M05 A3010 RMK AO2
KSTK 190755Z AUTO 03009KT 10SM BKN015 OVC120 M02/M05 A3010 RMK AO2
KSTK 190735Z AUTO 02007KT 10SM BKN015 OVC120 M02/M05 A3008 RMK AO2
KSTK 190715Z AUTO 03010KT 10SM OVC015 M01/M05 A3007 RMK AO2
KSTK 190655Z AUTO 02010G15KT 10SM OVC015 M01/M04 A3007 RMK AO2
KSTK 190635Z AUTO 02008KT 10SM OVC015 M01/M04 A3006 RMK AO2
KSTK 190615Z AUTO 02008KT 002V062 10SM OVC015 M01/M03 A3006 RMK AO2
KSTK 190555Z AUTO 01012G16KT 10SM BKN017 OVC120 00/M03 A3004 RMK AO2
KSTK 190535Z AUTO 01009G16KT 10SM SCT015 BKN120 00/M02 A3004 RMK AO2
KSTK 190515Z AUTO 01010G17KT 10SM SCT120 00/M02 A3001 RMK AO2
KSTK 190455Z AUTO 02010G15KT 10SM SCT120 00/M02 A3000 RMK AO2
KSTK 190435Z AUTO 02009G14KT 10SM SCT120 01/M02 A2998 RMK AO2
KSTK 190415Z AUTO 02009KT 10SM SCT120 01/M03 A2996 RMK AO2
KSTK 190355Z AUTO 02008KT 10SM OVC120 02/M03 A2995 RMK AO2
KSTK 190335Z AUTO 01007KT 10SM BKN120 02/M03 A2994 RMK AO2
KSTK 190315Z AUTO 02005KT 10SM SCT110 00/M04 A2993 RMK AO2
KSTK 190255Z AUTO 36003KT 10SM CLR 00/M04 A2991 RMK AO2
KSTK 190235Z AUTO 31004KT 10SM CLR M02/M05 A2990 RMK AO2
KSTK 190215Z AUTO 00000KT 10SM CLR 01/M04 A2989 RMK AO2
KSTK 190155Z AUTO 00000KT 10SM CLR 00/M05 A2989 RMK AO2
KSTK 190135Z AUTO 00000KT 10SM CLR 01/M04 A2988 RMK AO2
KSTK 190115Z AUTO 36004KT 10SM CLR 03/M04 A2988 RMK AO2
KSTK 190055Z AUTO 01004KT 10SM CLR 03/M04 A2987 RMK AO2
KSTK 190035Z AUTO 36003KT 10SM CLR 03/M04 A2986 RMK AO2
KSTK 190015Z AUTO 31003KT 10SM CLR 03/M05 A2985 RMK AO2
KSTK 182355Z AUTO 04004KT 10SM CLR 07/M04 A2984 RMK AO2
KSTK 182335Z AUTO 03003KT 10SM CLR 08/M04 A2984 RMK AO2
KSTK 182315Z AUTO 02003KT 10SM CLR 09/M04 A2983 RMK AO2
KSTK 182255Z AUTO 36005KT 10SM CLR 10/M05 A2982 RMK AO2
KSTK 182235Z AUTO 33006KT 10SM CLR 10/M05 A2981 RMK AO2
KSTK 182215Z AUTO 32008KT 10SM CLR 11/M05 A2981 RMK AO2
KSTK 182155Z AUTO 32009KT 10SM CLR 11/M04 A2980 RMK AO2
KSTK 182135Z AUTO 32007KT 10SM CLR 11/M05 A2979 RMK AO2
KSTK 182115Z AUTO 33007KT 10SM CLR 10/M05 A2979 RMK AO2
KSTK 182055Z AUTO 31010KT 10SM CLR 11/M05 A2979 RMK AO2
KSTK 182035Z AUTO 32008KT 10SM CLR 11/M06 A2979 RMK AO2
KSTK 182015Z AUTO 31006KT 10SM CLR 08/M02 A2980 RMK AO2
KSTK 181955Z AUTO 00000KT 10SM CLR 07/M02 A2980 RMK AO2
KSTK 181935Z AUTO 13003KT 10SM CLR 07/M02 A2979 RMK AO2
KSTK 181915Z AUTO 15005KT 10SM CLR 07/M02 A2979 RMK AO2
KSTK 181855Z AUTO 16006KT 10SM CLR 06/M01 A2980 RMK AO2
KSTK 181835Z AUTO 17006KT 10SM CLR 06/M02 A2980 RMK AO2
KSTK 181815Z AUTO 18004KT 10SM CLR 05/M02 A2981 RMK AO2
KSTK 181755Z AUTO 18008KT 10SM CLR 04/M02 A2981 RMK AO2
KSTK 181735Z AUTO 14004KT 10SM CLR 03/M02 A2982 RMK AO2
KSTK 181715Z AUTO 15007KT 10SM CLR 02/M02 A2982 RMK AO2
KSTK 181655Z AUTO 15004KT 10SM CLR 02/M02 A2981 RMK AO2
KSTK 181635Z AUTO 18010KT 10SM CLR 01/M02 A2981 RMK AO2
KSTK 181615Z AUTO 16006KT 10SM CLR 00/M02 A2981 RMK AO2
KSTK 181555Z AUTO 17007KT 10SM CLR 00/M02 A2980 RMK AO2
KSTK 181535Z AUTO 15005KT 10SM CLR 00/M03 A2980 RMK AO2
KSTK 181515Z AUTO 00000KT 10SM CLR M01/M03 A2980 RMK AO2
KSTK 181455Z AUTO 17005KT 10SM CLR M03/M05 A2979 RMK AO2